createdAt,value
2018-07-21T00:00:10.278Z,929.76
2018-07-21T00:01:10.211Z,929.76
2018-07-21T00:02:10.200Z,929.74
2018-07-21T00:03:10.176Z,929.72
2018-07-21T00:04:10.149Z,929.74
2018-07-21T00:05:10.132Z,929.74
2018-07-21T00:06:10.112Z,929.70
2018-07-21T00:07:10.083Z,929.69
2018-07-21T00:08:10.074Z,929.73
2018-07-21T00:09:10.045Z,929.69
2018-07-21T00:10:10.032Z,929.73
2018-07-21T00:11:10.011Z,929.72
2018-07-21T00:12:09.987Z,929.72
2018-07-21T00:13:09.968Z,929.73
2018-07-21T00:14:09.955Z,929.71
2018-07-21T00:15:09.912Z,929.75
2018-07-21T00:16:09.904Z,929.74
2018-07-21T00:17:09.885Z,929.73
2018-07-21T00:18:09.871Z,929.77
2018-07-21T00:19:09.860Z,929.77
2018-07-21T00:20:09.827Z,929.80
2018-07-21T00:21:09.784Z,929.79
2018-07-21T00:22:09.788Z,929.79
2018-07-21T00:23:09.757Z,929.82
2018-07-21T00:24:09.744Z,929.80
2018-07-21T00:25:09.721Z,929.89
2018-07-21T00:26:09.697Z,929.85
2018-07-21T00:27:09.680Z,929.88
2018-07-21T00:28:09.662Z,929.95
2018-07-21T00:29:09.638Z,929.90
2018-07-21T00:30:09.595Z,929.92
2018-07-21T00:31:09.603Z,929.93
2018-07-21T00:32:09.582Z,929.92
2018-07-21T00:33:09.556Z,929.96
2018-07-21T00:34:09.539Z,929.96
2018-07-21T00:35:09.515Z,929.97
2018-07-21T00:36:09.489Z,930.00
2018-07-21T00:37:09.473Z,929.99
2018-07-21T00:38:09.446Z,930.01
2018-07-21T00:39:09.437Z,929.99
2018-07-21T00:40:09.392Z,929.99
2018-07-21T00:41:09.386Z,929.99
2018-07-21T00:42:09.375Z,930.00
2018-07-21T00:43:09.328Z,930.02
2018-07-21T00:44:09.305Z,930.03
2018-07-21T00:45:09.306Z,930.01
2018-07-21T00:46:09.287Z,930.00
2018-07-21T00:47:09.237Z,930.01
2018-07-21T00:48:09.238Z,930.01
2018-07-21T00:49:09.230Z,930.00
2018-07-21T00:50:09.197Z,929.99
2018-07-21T00:51:09.183Z,930.01
2018-07-21T00:52:09.160Z,929.98
2018-07-21T00:53:09.131Z,930.00
2018-07-21T00:54:09.109Z,930.02
2018-07-21T00:55:09.095Z,929.98
2018-07-21T00:56:09.074Z,929.98
2018-07-21T00:57:09.072Z,929.97
2018-07-21T00:58:09.039Z,929.95
2018-07-21T00:59:09.012Z,929.97
2018-07-21T01:00:08.999Z,929.99
2018-07-21T01:01:08.955Z,929.98
2018-07-21T01:02:42.144Z,929.96
2018-07-21T01:03:08.909Z,929.96
2018-07-21T01:04:08.911Z,929.97
2018-07-21T01:05:08.884Z,929.96
2018-07-21T01:06:08.851Z,929.96
2018-07-21T01:07:08.848Z,929.97
2018-07-21T01:08:08.826Z,929.94
2018-07-21T01:09:08.817Z,929.91
2018-07-21T01:10:08.781Z,929.94
2018-07-21T01:11:08.780Z,929.94
2018-07-21T01:12:08.749Z,929.98
2018-07-21T01:13:08.720Z,929.94
2018-07-21T01:14:08.681Z,930.02
2018-07-21T01:15:08.680Z,930.03
2018-07-21T01:16:08.632Z,930.01
2018-07-21T01:17:08.638Z,930.06
2018-07-21T01:18:08.612Z,930.03
2018-07-21T01:19:08.590Z,929.97
2018-07-21T01:20:08.578Z,930.02
2018-07-21T01:21:08.554Z,930.04
2018-07-21T01:22:08.528Z,930.03
2018-07-21T01:23:08.516Z,930.01
2018-07-21T01:24:08.493Z,930.04
2018-07-21T01:25:08.459Z,930.01
2018-07-21T01:26:08.454Z,929.99
2018-07-21T01:27:08.425Z,930.05
2018-07-21T01:28:08.404Z,930.04
2018-07-21T01:29:08.384Z,930.01
2018-07-21T01:30:08.343Z,930.01
2018-07-21T01:31:08.336Z,930.02
2018-07-21T01:32:08.320Z,930.02
2018-07-21T01:33:08.283Z,930.01
2018-07-21T01:34:08.285Z,930.04
2018-07-21T01:35:08.244Z,929.94
2018-07-21T01:36:08.240Z,929.99
2018-07-21T01:37:08.215Z,930.01
2018-07-21T01:38:08.192Z,930.01
2018-07-21T01:39:08.154Z,929.97
2018-07-21T01:40:08.150Z,930.05
2018-07-21T01:41:08.128Z,930.02
2018-07-21T01:42:08.108Z,930.01
2018-07-21T01:43:08.088Z,930.00
2018-07-21T01:44:08.071Z,929.98
2018-07-21T01:45:08.047Z,929.99
2018-07-21T01:46:08.024Z,930.03
2018-07-21T01:47:08.008Z,930.01
2018-07-21T01:48:07.984Z,930.05
2018-07-21T01:49:07.945Z,930.03
2018-07-21T01:50:07.940Z,929.98
2018-07-21T01:51:07.918Z,930.01
2018-07-21T01:52:07.897Z,930.01
2018-07-21T01:53:07.883Z,930.01
2018-07-21T01:54:07.842Z,930.00
2018-07-21T01:55:07.832Z,929.99
2018-07-21T01:56:07.821Z,930.01
2018-07-21T01:57:07.791Z,930.03
2018-07-21T01:58:07.776Z,930.08
2018-07-21T01:59:07.756Z,930.06
2018-07-21T02:00:07.727Z,930.09
2018-07-21T02:01:07.687Z,930.06
2018-07-21T02:02:07.680Z,930.09
2018-07-21T02:03:07.650Z,930.11
2018-07-21T02:04:07.643Z,930.10
2018-07-21T02:05:07.623Z,930.09
2018-07-21T02:06:07.604Z,930.11
2018-07-21T02:07:07.586Z,930.12
2018-07-21T02:08:07.567Z,930.14
2018-07-21T02:09:07.546Z,930.12
2018-07-21T02:10:07.520Z,930.13
2018-07-21T02:11:07.499Z,930.12
2018-07-21T02:12:07.478Z,930.15
2018-07-21T02:13:07.448Z,930.10
2018-07-21T02:14:07.434Z,930.11
2018-07-21T02:15:07.402Z,930.11
2018-07-21T02:16:07.377Z,930.07
2018-07-21T02:17:07.393Z,930.07
2018-07-21T02:18:07.346Z,930.08
2018-07-21T02:19:07.308Z,930.05
2018-07-21T02:20:07.306Z,930.11
2018-07-21T02:21:07.285Z,930.06
2018-07-21T02:22:07.249Z,930.05
2018-07-21T02:23:07.242Z,930.05
2018-07-21T02:24:07.221Z,930.05
2018-07-21T02:25:07.199Z,930.03
2018-07-21T02:26:07.182Z,930.05
2018-07-21T02:27:07.142Z,929.99
2018-07-21T02:28:07.136Z,930.04
2018-07-21T02:29:07.123Z,930.02
2018-07-21T02:30:07.099Z,930.02
2018-07-21T02:31:07.075Z,930.07
2018-07-21T02:32:07.045Z,930.05
2018-07-21T02:33:07.029Z,930.04
2018-07-21T02:34:07.011Z,930.01
2018-07-21T02:35:06.997Z,929.99
2018-07-21T02:36:06.963Z,930.02
2018-07-21T02:37:06.932Z,930.04
2018-07-21T02:38:06.908Z,930.03
2018-07-21T02:39:06.900Z,930.03
2018-07-21T02:40:06.881Z,930.03
2018-07-21T02:41:40.072Z,930.02
2018-07-21T02:42:06.813Z,930.03
2018-07-21T02:43:06.823Z,930.09
2018-07-21T02:44:06.795Z,930.05
2018-07-21T02:45:06.775Z,930.07
2018-07-21T02:46:06.750Z,930.07
2018-07-21T02:47:06.733Z,930.06
2018-07-21T02:48:06.713Z,930.01
2018-07-21T02:49:06.686Z,930.02
2018-07-21T02:50:06.668Z,930.02
2018-07-21T02:51:06.652Z,930.05
2018-07-21T02:52:06.618Z,930.06
2018-07-21T02:53:06.605Z,930.07
2018-07-21T02:54:06.583Z,930.03
2018-07-21T02:55:06.542Z,930.05
2018-07-21T02:56:06.538Z,930.05
2018-07-21T02:57:06.499Z,930.03
2018-07-21T02:58:06.496Z,930.02
2018-07-21T02:59:06.474Z,930.05
2018-07-21T03:00:06.454Z,930.02
2018-07-21T03:01:06.429Z,930.04
2018-07-21T03:02:07.127Z,930.04
2018-07-21T03:03:06.394Z,930.03
2018-07-21T03:04:06.367Z,930.01
2018-07-21T03:05:06.348Z,930.01
2018-07-21T03:06:06.325Z,930.05
2018-07-21T03:07:06.300Z,930.05
2018-07-21T03:08:06.288Z,930.04
2018-07-21T03:09:06.264Z,930.08
2018-07-21T03:10:06.359Z,930.10
2018-07-21T03:11:06.219Z,930.13
2018-07-21T03:12:06.195Z,930.12
2018-07-21T03:13:06.170Z,930.12
2018-07-21T03:14:06.155Z,930.13
2018-07-21T03:15:06.136Z,930.14
2018-07-21T03:16:06.111Z,930.20
2018-07-21T03:17:06.071Z,930.16
2018-07-21T03:18:06.063Z,930.17
2018-07-21T03:19:06.025Z,930.20
2018-07-21T03:20:06.001Z,930.17
2018-07-21T03:21:06.001Z,930.17
2018-07-21T03:22:05.965Z,930.14
2018-07-21T03:23:05.970Z,930.14
2018-07-21T03:24:05.941Z,930.13
2018-07-21T03:25:05.916Z,930.09
2018-07-21T03:26:05.900Z,930.08
2018-07-21T03:27:05.864Z,930.12
2018-07-21T03:28:05.850Z,930.15
2018-07-21T03:29:05.809Z,930.12
2018-07-21T03:30:05.800Z,930.15
2018-07-21T03:31:05.788Z,930.13
2018-07-21T03:32:05.761Z,930.17
2018-07-21T03:33:05.737Z,930.15
2018-07-21T03:34:05.718Z,930.14
2018-07-21T03:35:05.679Z,930.14
2018-07-21T03:36:05.678Z,930.11
2018-07-21T03:37:05.656Z,930.08
2018-07-21T03:38:05.641Z,930.13
2018-07-21T03:39:05.616Z,930.10
2018-07-21T03:40:05.590Z,930.10
2018-07-21T03:41:05.572Z,930.12
2018-07-21T03:42:05.529Z,930.07
2018-07-21T03:43:05.523Z,930.11
2018-07-21T03:44:05.483Z,930.05
2018-07-21T03:45:05.480Z,930.13
2018-07-21T03:46:05.456Z,930.11
2018-07-21T03:47:05.432Z,930.08
2018-07-21T03:48:05.412Z,930.06
2018-07-21T03:49:05.398Z,930.05
2018-07-21T03:50:05.371Z,930.06
2018-07-21T03:51:05.347Z,930.02
2018-07-21T03:52:05.331Z,930.03
2018-07-21T03:53:05.306Z,929.99
2018-07-21T03:54:05.285Z,930.01
2018-07-21T03:55:05.286Z,930.06
2018-07-21T03:56:05.241Z,930.04
2018-07-21T03:57:05.218Z,930.03
2018-07-21T03:58:05.193Z,930.03
2018-07-21T03:59:05.176Z,930.07
2018-07-21T04:00:05.155Z,930.04
2018-07-21T04:01:05.131Z,929.97
2018-07-21T04:02:05.103Z,930.04
2018-07-21T04:03:05.085Z,930.05
2018-07-21T04:04:05.072Z,930.02
2018-07-21T04:05:05.042Z,930.01
2018-07-21T04:06:05.016Z,930.03
2018-07-21T04:07:04.998Z,930.07
2018-07-21T04:08:04.976Z,930.05
2018-07-21T04:09:04.987Z,930.07
2018-07-21T04:10:04.922Z,930.08
2018-07-21T04:11:04.912Z,930.07
2018-07-21T04:12:04.884Z,930.07
2018-07-21T04:13:04.871Z,930.06
2018-07-21T04:14:04.852Z,930.06
2018-07-21T04:15:04.813Z,930.05
2018-07-21T04:16:04.799Z,930.06
2018-07-21T04:17:04.776Z,930.08
2018-07-21T04:18:04.757Z,930.03
2018-07-21T04:19:04.724Z,930.07
2018-07-21T04:20:04.719Z,930.05
2018-07-21T04:21:04.722Z,930.04
2018-07-21T04:22:04.677Z,930.01
2018-07-21T04:23:04.645Z,930.09
2018-07-21T04:24:04.643Z,930.05
2018-07-21T04:25:04.608Z,930.04
2018-07-21T04:26:04.593Z,930.08
2018-07-21T04:27:04.560Z,930.06
2018-07-21T04:28:04.554Z,930.05
2018-07-21T04:29:04.520Z,930.07
2018-07-21T04:30:04.483Z,930.08
2018-07-21T04:31:04.484Z,930.05
2018-07-21T04:32:04.459Z,930.06
2018-07-21T04:33:05.043Z,930.07
2018-07-21T04:34:04.417Z,930.08
2018-07-21T04:35:04.383Z,930.06
2018-07-21T04:36:04.372Z,930.09
2018-07-21T04:37:04.327Z,930.06
2018-07-21T04:38:04.316Z,930.10
2018-07-21T04:39:04.296Z,930.12
2018-07-21T04:40:04.261Z,930.09
2018-07-21T04:41:04.234Z,930.10
2018-07-21T04:42:04.215Z,930.11
2018-07-21T04:43:04.215Z,930.12
2018-07-21T04:44:04.194Z,930.09
2018-07-21T04:45:04.168Z,930.08
2018-07-21T04:46:04.146Z,930.10
2018-07-21T04:47:04.131Z,930.07
2018-07-21T04:48:04.112Z,930.06
2018-07-21T04:49:04.077Z,930.05
2018-07-21T04:50:04.037Z,930.08
2018-07-21T04:51:04.034Z,930.02
2018-07-21T04:52:04.018Z,930.05
2018-07-21T04:53:03.995Z,930.08
2018-07-21T04:54:03.979Z,930.02
2018-07-21T04:55:04.688Z,930.00
2018-07-21T04:56:03.935Z,929.95
2018-07-21T04:57:03.913Z,929.96
2018-07-21T04:58:03.890Z,929.97
2018-07-21T04:59:04.410Z,929.99
2018-07-21T05:00:03.837Z,929.99
2018-07-21T05:01:04.388Z,930.04
2018-07-21T05:02:04.326Z,930.07
2018-07-21T05:03:04.309Z,929.97
2018-07-21T05:04:03.738Z,930.03
2018-07-21T05:05:03.722Z,930.03
2018-07-21T05:06:03.896Z,930.06
2018-07-21T05:07:04.216Z,930.11
2018-07-21T05:08:04.104Z,930.05
2018-07-21T05:09:03.640Z,930.06
2018-07-21T05:10:03.619Z,930.08
2018-07-21T05:11:03.599Z,930.12
2018-07-21T05:12:03.577Z,930.13
2018-07-21T05:13:03.552Z,930.15
2018-07-21T05:14:03.544Z,930.16
2018-07-21T05:15:03.510Z,930.17
2018-07-21T05:16:03.494Z,930.15
2018-07-21T05:17:03.462Z,930.20
2018-07-21T05:18:03.431Z,930.19
2018-07-21T05:19:03.422Z,930.18
2018-07-21T05:20:06.475Z,930.20
2018-07-21T05:21:04.107Z,930.16
2018-07-21T05:22:06.823Z,930.16
2018-07-21T05:23:03.528Z,930.16
2018-07-21T05:24:04.372Z,930.15
2018-07-21T05:25:04.429Z,930.14
2018-07-21T05:26:05.317Z,930.07
2018-07-21T05:27:03.785Z,930.07
2018-07-21T05:28:04.361Z,930.09
2018-07-21T05:29:03.600Z,930.08
2018-07-21T05:31:04.294Z,930.08
2018-07-21T05:32:04.272Z,930.11
2018-07-21T05:33:04.561Z,930.09
2018-07-21T05:34:04.642Z,930.06
2018-07-21T05:35:04.112Z,930.07
2018-07-21T05:36:03.483Z,930.06
2018-07-21T05:37:03.022Z,930.07
2018-07-21T05:38:03.926Z,930.07
2018-07-21T05:39:03.519Z,930.08
2018-07-21T05:40:03.727Z,930.11
2018-07-21T05:41:03.374Z,930.08
2018-07-21T05:42:03.352Z,930.08
2018-07-21T05:43:02.897Z,930.05
2018-07-21T05:44:02.853Z,930.05
2018-07-21T05:45:03.507Z,930.01
2018-07-21T05:46:03.646Z,930.03
2018-07-21T05:47:03.937Z,930.02
2018-07-21T05:48:03.404Z,930.00
2018-07-21T05:49:03.400Z,929.95
2018-07-21T05:50:03.173Z,929.96
2018-07-21T05:52:03.498Z,929.94
2018-07-21T05:53:03.106Z,929.99
2018-07-21T05:54:03.701Z,929.96
2018-07-21T05:55:03.051Z,930.00
2018-07-21T05:56:03.517Z,929.98
2018-07-21T05:57:02.971Z,929.99
2018-07-21T05:58:02.553Z,930.01
2018-07-21T05:59:02.535Z,929.97
2018-07-21T06:00:02.511Z,930.00
2018-07-21T06:01:02.934Z,930.03
2018-07-21T06:02:02.890Z,930.05
2018-07-21T06:03:02.695Z,930.02
2018-07-21T06:04:02.783Z,930.07
2018-07-21T06:05:02.643Z,930.05
2018-07-21T06:06:02.586Z,930.01
2018-07-21T06:07:02.887Z,930.04
2018-07-21T06:08:02.335Z,930.02
2018-07-21T06:09:02.317Z,930.01
2018-07-21T06:10:03.224Z,930.08
2018-07-21T06:11:04.035Z,930.08
2018-07-21T06:12:02.784Z,930.02
2018-07-21T06:13:02.199Z,930.04
2018-07-21T06:14:02.738Z,930.06
2018-07-21T06:15:02.180Z,930.11
2018-07-21T06:16:02.138Z,930.07
2018-07-21T06:17:02.213Z,930.07
2018-07-21T06:18:02.614Z,930.04
2018-07-21T06:19:02.294Z,930.05
2018-07-21T06:20:02.592Z,930.05
2018-07-21T06:21:02.544Z,930.02
2018-07-21T06:22:02.014Z,929.96
2018-07-21T06:23:01.996Z,930.00
2018-07-21T06:24:01.976Z,929.96
2018-07-21T06:25:02.730Z,929.95
2018-07-21T06:26:02.476Z,929.97
2018-07-21T06:27:02.451Z,929.94
2018-07-21T06:28:02.445Z,929.97
2018-07-21T06:29:01.857Z,929.94
2018-07-21T06:30:02.385Z,929.93
2018-07-21T06:31:01.820Z,929.92
2018-07-21T06:32:01.792Z,929.91
2018-07-21T06:33:02.296Z,929.94
2018-07-21T06:34:02.374Z,929.97
2018-07-21T06:35:04.084Z,929.96
2018-07-21T06:36:02.246Z,929.95
2018-07-21T06:37:01.680Z,929.95
2018-07-21T06:38:01.844Z,929.94
2018-07-21T06:39:01.628Z,929.99
2018-07-21T06:40:01.787Z,929.97
2018-07-21T06:41:01.792Z,929.98
2018-07-21T06:42:01.570Z,929.97
2018-07-21T06:43:01.561Z,929.95
2018-07-21T06:44:02.471Z,929.95
2018-07-21T06:45:02.030Z,929.98
2018-07-21T06:46:02.014Z,929.99
2018-07-21T06:47:01.461Z,930.01
2018-07-21T06:48:01.435Z,930.05
2018-07-21T06:49:01.410Z,930.05
2018-07-21T06:50:01.390Z,930.03
2018-07-21T06:51:01.365Z,930.05
2018-07-21T06:52:01.576Z,930.05
2018-07-21T06:53:01.324Z,930.04
2018-07-21T06:54:01.298Z,930.07
2018-07-21T06:55:01.278Z,930.07
2018-07-21T06:56:01.988Z,930.03
2018-07-21T06:57:02.252Z,930.02
2018-07-21T06:58:01.639Z,929.99
2018-07-21T06:59:02.059Z,929.95
2018-07-21T07:00:04.935Z,929.98
2018-07-21T07:01:03.505Z,929.99
2018-07-21T07:02:01.750Z,930.03
2018-07-21T07:03:02.509Z,929.99
2018-07-21T07:04:04.503Z,929.97
2018-07-21T07:05:01.990Z,929.96
2018-07-21T07:06:01.010Z,929.99
2018-07-21T07:07:01.006Z,930.02
2018-07-21T07:08:00.978Z,930.02
2018-07-21T07:09:00.959Z,930.02
2018-07-21T07:10:00.936Z,930.00
2018-07-21T07:11:00.896Z,930.03
2018-07-21T07:12:00.890Z,929.99
2018-07-21T07:13:00.871Z,929.95
2018-07-21T07:14:00.845Z,929.99
2018-07-21T07:15:00.817Z,929.97
2018-07-21T07:16:00.847Z,929.94
2018-07-21T07:17:00.768Z,929.96
2018-07-21T07:18:00.735Z,929.98
2018-07-21T07:19:00.713Z,930.00
2018-07-21T07:20:00.701Z,930.01
2018-07-21T07:21:00.687Z,929.99
2018-07-21T07:22:00.659Z,929.97
2018-07-21T07:23:00.638Z,929.99
2018-07-21T07:24:00.602Z,930.00
2018-07-21T07:25:00.584Z,929.99
2018-07-21T07:26:00.576Z,929.97
2018-07-21T07:27:00.527Z,929.97
2018-07-21T07:28:00.518Z,929.99
2018-07-21T07:29:00.500Z,929.96
2018-07-21T07:30:00.478Z,929.90
2018-07-21T07:31:00.448Z,929.90
2018-07-21T07:32:00.433Z,929.96
2018-07-21T07:33:00.387Z,929.94
2018-07-21T07:34:00.383Z,929.94
2018-07-21T07:35:00.365Z,929.96
2018-07-21T07:36:00.348Z,929.95
2018-07-21T07:37:00.318Z,929.92
2018-07-21T07:38:00.299Z,929.91
2018-07-21T07:39:00.256Z,929.90
2018-07-21T07:40:00.253Z,929.91
2018-07-21T07:41:00.224Z,929.93
2018-07-21T07:42:00.207Z,929.91
2018-07-21T07:43:00.187Z,929.96
2018-07-21T07:44:00.141Z,929.96
2018-07-21T07:45:00.113Z,929.95
2018-07-21T07:46:00.109Z,929.96
2018-07-21T07:47:00.098Z,929.98
2018-07-21T07:48:00.061Z,930.01
2018-07-21T07:49:00.048Z,929.97
2018-07-21T07:50:00.029Z,930.02
2018-07-21T07:50:59.994Z,930.01
2018-07-21T07:51:59.971Z,930.00
2018-07-21T07:52:59.955Z,930.03
2018-07-21T07:53:59.939Z,930.03
2018-07-21T07:54:59.903Z,930.05
2018-07-21T07:55:59.887Z,930.07
2018-07-21T07:56:59.859Z,930.02
2018-07-21T07:57:59.834Z,930.05
2018-07-21T07:58:59.818Z,930.08
2018-07-21T07:59:59.786Z,930.10
2018-07-21T08:00:59.751Z,930.09
2018-07-21T08:01:59.740Z,930.13
2018-07-21T08:02:59.705Z,930.10
2018-07-21T08:03:59.696Z,930.13
2018-07-21T08:04:59.682Z,930.16
2018-07-21T08:05:59.660Z,930.12
2018-07-21T08:06:59.628Z,930.11
2018-07-21T08:07:59.605Z,930.16
2018-07-21T08:08:59.589Z,930.16
2018-07-21T08:09:59.560Z,930.17
2018-07-21T08:10:59.534Z,930.15
2018-07-21T08:11:59.513Z,930.20
2018-07-21T08:12:59.493Z,930.19
2018-07-21T08:13:59.450Z,930.18
2018-07-21T08:14:59.456Z,930.18
2018-07-21T08:15:59.430Z,930.18
2018-07-21T08:16:59.405Z,930.17
2018-07-21T08:17:59.381Z,930.12
2018-07-21T08:18:59.356Z,930.18
2018-07-21T08:19:59.331Z,930.13
2018-07-21T08:20:59.302Z,930.18
2018-07-21T08:21:59.292Z,930.17
2018-07-21T08:22:59.270Z,930.18
2018-07-21T08:23:59.240Z,930.19
2018-07-21T08:24:59.225Z,930.17
2018-07-21T08:25:59.192Z,930.21
2018-07-21T08:26:59.178Z,930.25
2018-07-21T08:27:59.153Z,930.26
2018-07-21T08:28:59.113Z,930.24
2018-07-21T08:29:59.100Z,930.25
2018-07-21T08:30:59.064Z,930.28
2018-07-21T08:31:59.036Z,930.27
2018-07-21T08:32:59.031Z,930.30
2018-07-21T08:33:59.001Z,930.29
2018-07-21T08:34:58.990Z,930.30
2018-07-21T08:35:58.967Z,930.28
2018-07-21T08:36:58.945Z,930.34
2018-07-21T08:37:58.923Z,930.40
2018-07-21T08:38:58.904Z,930.38
2018-07-21T08:39:58.871Z,930.38
2018-07-21T08:40:58.851Z,930.43
2018-07-21T08:41:58.826Z,930.39
2018-07-21T08:42:58.810Z,930.43
2018-07-21T08:43:58.779Z,930.45
2018-07-21T08:44:58.764Z,930.45
2018-07-21T08:45:58.736Z,930.45
2018-07-21T08:46:58.704Z,930.47
2018-07-21T08:47:58.698Z,930.49
2018-07-21T08:48:58.670Z,930.49
2018-07-21T08:49:58.629Z,930.48
2018-07-21T08:50:58.621Z,930.47
2018-07-21T08:51:58.580Z,930.55
2018-07-21T08:52:58.571Z,930.52
2018-07-21T08:53:58.551Z,930.55
2018-07-21T08:54:58.533Z,930.53
2018-07-21T08:55:58.538Z,930.55
2018-07-21T08:56:58.473Z,930.54
2018-07-21T08:57:58.473Z,930.55
2018-07-21T08:58:58.435Z,930.59
2018-07-21T08:59:58.418Z,930.59
2018-07-21T09:00:58.394Z,930.66
2018-07-21T09:01:58.368Z,930.60
2018-07-21T09:02:58.351Z,930.61
2018-07-21T09:03:58.323Z,930.63
2018-07-21T09:04:58.301Z,930.64
2018-07-21T09:05:58.275Z,930.65
2018-07-21T09:06:58.255Z,930.68
2018-07-21T09:07:58.233Z,930.69
2018-07-21T09:08:58.209Z,930.68
2018-07-21T09:09:58.170Z,930.73
2018-07-21T09:10:58.159Z,930.74
2018-07-21T09:11:58.200Z,930.74
2018-07-21T09:12:58.728Z,930.78
2018-07-21T09:13:59.201Z,930.78
2018-07-21T09:14:58.913Z,930.82
2018-07-21T09:15:58.788Z,930.84
2018-07-21T09:16:58.962Z,930.85
2018-07-21T09:17:58.443Z,930.88
2018-07-21T09:19:57.937Z,930.92
2018-07-21T09:20:57.934Z,930.96
2018-07-21T09:21:58.521Z,930.96
2018-07-21T09:22:57.888Z,930.94
2018-07-21T09:23:57.863Z,931.00
2018-07-21T09:24:57.835Z,930.98
2018-07-21T09:25:57.821Z,931.00
2018-07-21T09:26:57.797Z,931.02
2018-07-21T09:27:57.774Z,931.06
2018-07-21T09:28:57.754Z,931.04
2018-07-21T09:29:57.724Z,931.05
2018-07-21T09:30:57.702Z,931.04
2018-07-21T09:31:57.674Z,931.05
2018-07-21T09:32:57.653Z,931.04
2018-07-21T09:33:57.616Z,931.05
2018-07-21T09:34:57.591Z,931.02
2018-07-21T09:35:57.579Z,931.00
2018-07-21T09:36:57.560Z,931.03
2018-07-21T09:37:57.541Z,931.02
2018-07-21T09:38:57.519Z,931.04
2018-07-21T09:39:58.202Z,931.00
2018-07-21T09:40:57.465Z,931.05
2018-07-21T09:41:57.448Z,931.07
2018-07-21T09:42:57.404Z,931.11
2018-07-21T09:43:57.386Z,931.13
2018-07-21T09:44:57.380Z,931.12
2018-07-21T09:45:57.357Z,931.15
2018-07-21T09:46:57.324Z,931.15
2018-07-21T09:47:57.303Z,931.16
2018-07-21T09:48:57.282Z,931.14
2018-07-21T09:49:57.246Z,931.14
2018-07-21T09:50:57.233Z,931.13
2018-07-21T09:51:57.216Z,931.14
2018-07-21T09:52:57.193Z,931.17
2018-07-21T09:53:57.170Z,931.12
2018-07-21T09:54:57.153Z,931.17
2018-07-21T09:55:57.217Z,931.16
2018-07-21T09:56:57.086Z,931.20
2018-07-21T09:57:57.076Z,931.19
2018-07-21T09:58:57.056Z,931.14
2018-07-21T09:59:57.029Z,931.23
2018-07-21T10:00:57.024Z,931.28
2018-07-21T10:01:56.962Z,931.33
2018-07-21T10:02:56.955Z,931.39
2018-07-21T10:03:56.947Z,931.39
2018-07-21T10:04:56.916Z,931.40
2018-07-21T10:05:56.893Z,931.44
2018-07-21T10:06:56.875Z,931.45
2018-07-21T10:07:56.844Z,931.46
2018-07-21T10:08:56.826Z,931.48
2018-07-21T10:09:56.800Z,931.47
2018-07-21T10:10:56.783Z,931.48
2018-07-21T10:11:56.752Z,931.50
2018-07-21T10:12:56.711Z,931.52
2018-07-21T10:13:56.720Z,931.52
2018-07-21T10:14:56.731Z,931.53
2018-07-21T10:15:56.660Z,931.53
2018-07-21T10:16:56.643Z,931.55
2018-07-21T10:17:57.157Z,931.51
2018-07-21T10:18:57.144Z,931.57
2018-07-21T10:19:57.100Z,931.61
2018-07-21T10:20:56.550Z,931.66
2018-07-21T10:21:56.628Z,931.64
2018-07-21T10:22:57.043Z,931.62
2018-07-21T10:23:57.319Z,931.66
2018-07-21T10:24:56.992Z,931.67
2018-07-21T10:25:56.940Z,931.68
2018-07-21T10:26:56.405Z,931.68
2018-07-21T10:27:56.393Z,931.65
2018-07-21T10:28:58.929Z,931.64
2018-07-21T10:29:56.329Z,931.71
2018-07-21T10:30:56.332Z,931.73
2018-07-21T10:31:56.312Z,931.72
2018-07-21T10:32:56.285Z,931.77
2018-07-21T10:33:56.241Z,931.74
2018-07-21T10:34:56.241Z,931.76
2018-07-21T10:35:56.252Z,931.77
2018-07-21T10:36:56.204Z,931.81
2018-07-21T10:37:56.172Z,931.88
2018-07-21T10:38:56.161Z,931.90
2018-07-21T10:39:56.138Z,931.93
2018-07-21T10:40:56.113Z,931.92
2018-07-21T10:41:56.087Z,931.97
2018-07-21T10:42:56.049Z,932.00
2018-07-21T10:43:56.050Z,931.98
2018-07-21T10:44:56.029Z,932.05
2018-07-21T10:45:55.988Z,932.09
2018-07-21T10:46:55.979Z,932.08
2018-07-21T10:47:55.961Z,932.08
2018-07-21T10:48:55.934Z,932.12
2018-07-21T10:49:55.903Z,932.15
2018-07-21T10:50:55.885Z,932.23
2018-07-21T10:51:55.888Z,932.12
2018-07-21T10:52:55.857Z,932.11
2018-07-21T10:53:55.834Z,932.18
2018-07-21T10:54:55.816Z,932.17
2018-07-21T10:55:55.796Z,932.16
2018-07-21T10:56:55.769Z,932.19
2018-07-21T10:57:55.754Z,932.21
2018-07-21T10:58:55.723Z,932.19
2018-07-21T10:59:55.708Z,932.24
2018-07-21T11:00:55.695Z,932.27
2018-07-21T11:01:55.669Z,932.24
2018-07-21T11:02:55.647Z,932.28
2018-07-21T11:03:55.635Z,932.32
2018-07-21T11:04:55.605Z,932.32
2018-07-21T11:05:55.588Z,932.34
2018-07-21T11:06:55.573Z,932.40
2018-07-21T11:07:55.552Z,932.40
2018-07-21T11:08:55.555Z,932.40
2018-07-21T11:09:55.510Z,932.42
2018-07-21T11:10:55.490Z,932.49
2018-07-21T11:11:55.474Z,932.45
2018-07-21T11:12:55.435Z,932.49
2018-07-21T11:13:55.428Z,932.53
2018-07-21T11:14:55.424Z,932.50
2018-07-21T11:15:55.392Z,932.56
2018-07-21T11:16:55.370Z,932.63
2018-07-21T11:17:55.346Z,932.72
2018-07-21T11:18:55.336Z,932.78
2018-07-21T11:19:55.310Z,932.80
2018-07-21T11:20:55.299Z,932.84
2018-07-21T11:21:55.324Z,932.77
2018-07-21T11:22:55.239Z,932.80
2018-07-21T11:23:55.239Z,932.83
2018-07-21T11:24:55.468Z,932.88
2018-07-21T11:25:55.198Z,933.03
2018-07-21T11:26:55.181Z,933.04
2018-07-21T11:27:55.164Z,933.18
2018-07-21T11:28:55.142Z,933.07
2018-07-21T11:29:55.129Z,933.16
2018-07-21T11:30:55.112Z,932.99
2018-07-21T11:31:55.088Z,932.92
2018-07-21T11:32:55.068Z,932.98
2018-07-21T11:33:55.053Z,932.93
2018-07-21T11:34:55.030Z,932.83
2018-07-21T11:35:55.370Z,932.81
2018-07-21T11:36:54.970Z,932.89
2018-07-21T11:37:54.969Z,932.85
2018-07-21T11:38:54.939Z,932.88
2018-07-21T11:39:54.934Z,932.98
2018-07-21T11:40:54.923Z,933.31
2018-07-21T11:41:54.894Z,933.36
2018-07-21T11:42:54.873Z,933.16
2018-07-21T11:43:54.854Z,932.98
2018-07-21T11:44:54.835Z,932.97
2018-07-21T11:45:54.828Z,932.93
2018-07-21T11:46:54.799Z,933.33
2018-07-21T11:47:54.792Z,933.54
2018-07-21T11:48:54.765Z,933.17
2018-07-21T11:49:54.732Z,932.92
2018-07-21T11:50:54.728Z,932.98
2018-07-21T11:51:54.708Z,932.98
2018-07-21T11:52:54.670Z,933.05
2018-07-21T11:53:54.669Z,933.06
2018-07-21T11:54:54.634Z,933.04
2018-07-21T11:55:54.637Z,933.05
2018-07-21T11:56:54.619Z,933.29
2018-07-21T11:57:54.580Z,933.51
2018-07-21T11:58:54.588Z,933.43
2018-07-21T11:59:54.566Z,933.23
2018-07-21T12:00:54.546Z,933.21
2018-07-21T12:01:54.547Z,933.28
2018-07-21T12:02:54.495Z,933.34
2018-07-21T12:03:54.493Z,933.40
2018-07-21T12:04:54.461Z,933.50
2018-07-21T12:05:54.462Z,933.54
2018-07-21T12:06:54.442Z,933.73
2018-07-21T12:07:54.401Z,933.74
2018-07-21T12:08:54.404Z,933.39
2018-07-21T12:09:54.393Z,933.28
2018-07-21T12:10:54.808Z,933.35
2018-07-21T12:11:54.360Z,933.36
2018-07-21T12:12:54.360Z,933.41
2018-07-21T12:13:54.331Z,933.48
2018-07-21T12:14:54.316Z,933.46
2018-07-21T12:15:54.285Z,933.38
2018-07-21T12:16:54.272Z,933.46
2018-07-21T12:17:54.258Z,933.50
2018-07-21T12:18:54.244Z,933.55
2018-07-21T12:19:54.204Z,933.58
2018-07-21T12:20:54.185Z,933.42
2018-07-21T12:21:54.177Z,933.39
2018-07-21T12:22:54.178Z,933.45
2018-07-21T12:23:54.154Z,933.34
2018-07-21T12:24:54.144Z,933.66
2018-07-21T12:25:54.122Z,933.73
2018-07-21T12:26:54.111Z,933.87
2018-07-21T12:27:54.094Z,933.80
2018-07-21T12:28:54.076Z,933.90
2018-07-21T12:29:54.042Z,933.84
2018-07-21T12:30:54.053Z,933.62